createdAt,value
2023-03-25T00:02:27.494Z,4.77
2023-03-25T00:04:56.312Z,5.70
2023-03-25T00:07:24.720Z,6.60
2023-03-25T00:09:53.316Z,8.23
2023-03-25T00:12:21.809Z,6.03
2023-03-25T00:14:55.093Z,6.30
2023-03-25T00:17:26.821Z,7.23
2023-03-25T00:19:55.589Z,5.63
2023-03-25T00:22:24.381Z,6.37
2023-03-25T00:24:52.996Z,6.20
2023-03-25T00:27:21.762Z,5.90
2023-03-25T00:29:50.197Z,5.93
2023-03-25T00:32:21.046Z,6.53
2023-03-25T00:34:52.595Z,5.93
2023-03-25T00:37:22.017Z,5.40
2023-03-25T00:39:50.943Z,7.57
2023-03-25T00:42:26.290Z,5.53
2023-03-25T00:44:54.902Z,6.20
2023-03-25T00:47:23.434Z,5.87
2023-03-25T00:49:53.541Z,7.23
2023-03-25T00:52:23.257Z,6.60
2023-03-25T00:54:52.910Z,8.00
2023-03-25T00:57:21.351Z,7.10
2023-03-25T00:59:51.432Z,6.77
2023-03-25T01:02:21.741Z,5.90
2023-03-25T01:04:51.013Z,7.40
2023-03-25T01:07:20.828Z,6.77
2023-03-25T01:09:49.751Z,6.77
2023-03-25T01:12:19.319Z,6.93
2023-03-25T01:14:47.898Z,6.73
2023-03-25T01:17:16.425Z,7.00
2023-03-25T01:19:44.911Z,7.37
2023-03-25T01:22:13.518Z,7.47
2023-03-25T01:24:43.540Z,8.70
2023-03-25T01:27:12.200Z,7.80
2023-03-25T01:29:40.751Z,8.50
2023-03-25T01:32:09.107Z,7.53
2023-03-25T01:34:38.778Z,6.50
2023-03-25T01:37:07.984Z,6.47
2023-03-25T01:39:37.114Z,6.30
2023-03-25T01:42:07.178Z,6.67
2023-03-25T01:45:12.742Z,6.27
2023-03-25T01:47:41.333Z,5.33
2023-03-25T01:50:15.268Z,5.73
2023-03-25T01:52:45.223Z,5.00
2023-03-25T01:55:13.619Z,3.93
2023-03-25T01:57:46.432Z,7.03
2023-03-25T02:00:16.428Z,3.93
2023-03-25T02:02:45.897Z,4.37
2023-03-25T02:05:19.602Z,6.33
2023-03-25T02:07:49.183Z,3.70
2023-03-25T02:10:17.656Z,3.53
2023-03-25T02:12:47.697Z,4.17
2023-03-25T02:15:16.906Z,5.07
2023-03-25T02:18:04.281Z,3.70
2023-03-25T02:21:11.634Z,5.70
2023-03-25T02:24:04.694Z,4.87
2023-03-25T02:27:02.189Z,5.50
2023-03-25T02:29:38.721Z,4.70
2023-03-25T02:32:15.537Z,7.30
2023-03-25T02:35:07.362Z,4.33
2023-03-25T02:37:58.458Z,6.30
2023-03-25T02:40:27.890Z,6.37
2023-03-25T02:42:56.943Z,6.23
2023-03-25T02:45:27.215Z,5.33
2023-03-25T02:47:56.385Z,5.90
2023-03-25T02:50:26.807Z,6.47
2023-03-25T02:52:57.820Z,4.60
2023-03-25T02:55:28.879Z,6.70
2023-03-25T02:57:57.391Z,6.17
2023-03-25T03:00:27.596Z,7.43
2023-03-25T03:03:00.524Z,5.70
2023-03-25T03:05:32.693Z,5.40
2023-03-25T03:08:10.488Z,7.40
2023-03-25T03:10:42.844Z,5.00
2023-03-25T03:13:16.756Z,4.93
2023-03-25T03:15:50.059Z,4.80
2023-03-25T03:18:27.690Z,6.63
2023-03-25T03:20:57.785Z,4.40
2023-03-25T03:23:29.384Z,7.60
2023-03-25T03:25:57.984Z,6.93
2023-03-25T03:28:29.465Z,5.20
2023-03-25T03:31:00.092Z,6.87
2023-03-25T03:33:32.260Z,5.63
2023-03-25T03:36:02.286Z,4.77
2023-03-25T03:38:35.352Z,7.57
2023-03-25T03:41:06.182Z,6.30
2023-03-25T03:43:37.957Z,5.23
2023-03-25T03:46:07.723Z,7.00
2023-03-25T03:48:38.912Z,4.67
2023-03-25T03:51:09.564Z,6.33
2023-03-25T03:53:40.354Z,7.67
2023-03-25T03:56:10.075Z,5.87
2023-03-25T03:58:43.232Z,6.30
2023-03-25T04:01:13.084Z,8.17
2023-03-25T04:03:43.241Z,7.23
2023-03-25T04:06:18.382Z,5.57
2023-03-25T04:08:58.993Z,5.57
2023-03-25T04:11:28.902Z,6.00
2023-03-25T04:13:57.283Z,6.43
2023-03-25T04:16:25.829Z,9.37
2023-03-25T04:18:55.205Z,5.50
2023-03-25T04:21:23.584Z,6.40
2023-03-25T04:23:53.476Z,5.00
2023-03-25T04:26:22.803Z,5.80
2023-03-25T04:28:51.285Z,7.13
2023-03-25T04:31:19.729Z,5.93
2023-03-25T04:33:48.714Z,7.67
2023-03-25T04:36:17.318Z,6.97
2023-03-25T04:38:46.475Z,6.53
2023-03-25T04:41:17.629Z,6.10
2023-03-25T04:43:46.153Z,8.50
2023-03-25T04:46:15.389Z,6.83
2023-03-25T04:48:45.263Z,7.47
2023-03-25T04:51:13.679Z,9.40
2023-03-25T04:53:42.278Z,7.90
2023-03-25T04:56:17.210Z,6.97
2023-03-25T04:58:45.746Z,9.17
2023-03-25T05:01:21.293Z,6.33
2023-03-25T05:03:50.490Z,6.73
2023-03-25T05:06:19.177Z,7.07
2023-03-25T05:08:49.906Z,9.00
2023-03-25T05:11:19.813Z,6.67
2023-03-25T05:13:48.120Z,7.63
2023-03-25T05:16:16.533Z,5.60
2023-03-25T05:18:44.954Z,7.10
2023-03-25T05:21:13.772Z,6.63
2023-03-25T05:23:43.374Z,5.87
2023-03-25T05:26:12.237Z,8.20
2023-03-25T05:28:42.873Z,7.70
2023-03-25T05:31:11.355Z,6.30
2023-03-25T05:33:43.110Z,6.80
2023-03-25T05:36:12.274Z,5.80
2023-03-25T05:38:41.952Z,5.27
2023-03-25T05:41:10.989Z,8.20
2023-03-25T05:43:39.546Z,7.33
2023-03-25T05:46:09.732Z,6.47
2023-03-25T05:48:38.257Z,6.57
2023-03-25T05:51:07.397Z,6.23
2023-03-25T05:53:35.745Z,5.90
2023-03-25T05:56:04.354Z,5.63
2023-03-25T05:58:33.300Z,5.50
2023-03-25T06:01:03.358Z,8.03
2023-03-25T06:03:34.582Z,7.80
2023-03-25T06:06:05.397Z,6.47
2023-03-25T06:08:35.429Z,7.53
2023-03-25T06:11:04.433Z,7.17
2023-03-25T06:13:34.182Z,7.30
2023-03-25T06:16:03.422Z,6.40
2023-03-25T06:18:33.583Z,7.23
2023-03-25T06:21:02.269Z,7.87
2023-03-25T06:23:31.468Z,7.90
2023-03-25T06:25:59.857Z,6.90
2023-03-25T06:28:28.211Z,6.70
2023-03-25T06:30:57.295Z,6.70
2023-03-25T06:33:43.106Z,5.40
2023-03-25T06:36:15.496Z,7.03
2023-03-25T06:38:44.414Z,6.60
2023-03-25T06:41:13.958Z,7.43
2023-03-25T06:43:42.744Z,6.17
2023-03-25T06:46:11.454Z,8.53
2023-03-25T06:48:40.830Z,7.17
2023-03-25T06:51:09.718Z,7.07
2023-03-25T06:53:39.906Z,11.63
2023-03-25T06:56:09.330Z,6.37
2023-03-25T06:58:38.194Z,9.90
2023-03-25T07:01:07.881Z,13.17
2023-03-25T07:03:38.003Z,16.33
2023-03-25T07:06:07.465Z,9.97
2023-03-25T07:08:36.256Z,8.87
2023-03-25T07:11:07.420Z,8.00
2023-03-25T07:13:35.866Z,10.23
2023-03-25T07:16:04.278Z,7.93
2023-03-25T07:18:32.719Z,7.27
2023-03-25T07:21:01.370Z,8.40
2023-03-25T07:23:29.682Z,8.07
2023-03-25T07:25:58.070Z,8.60
2023-03-25T07:28:27.977Z,11.00
2023-03-25T07:30:56.277Z,4.60
2023-03-25T07:33:24.614Z,5.80
2023-03-25T07:35:53.249Z,6.63
2023-03-25T07:38:21.718Z,6.03
2023-03-25T07:40:50.623Z,5.70
2023-03-25T07:43:19.218Z,5.97
2023-03-25T07:45:48.968Z,6.40
2023-03-25T07:48:17.234Z,8.10
2023-03-25T07:50:45.860Z,6.43
2023-03-25T07:53:14.168Z,10.67
2023-03-25T07:55:42.503Z,5.77
2023-03-25T07:58:10.842Z,4.47
2023-03-25T08:00:39.329Z,4.70
2023-03-25T08:03:09.131Z,6.33
2023-03-25T08:05:38.093Z,5.37
2023-03-25T08:08:06.931Z,5.20
2023-03-25T08:10:36.148Z,4.57
2023-03-25T08:13:04.442Z,5.47
2023-03-25T08:15:33.349Z,5.77
2023-03-25T08:18:03.274Z,4.57
2023-03-25T08:20:33.001Z,5.83
2023-03-25T08:23:01.364Z,7.07
2023-03-25T08:25:29.848Z,5.13
2023-03-25T08:27:58.188Z,5.73
2023-03-25T08:30:26.540Z,7.03
2023-03-25T08:32:55.562Z,4.77
2023-03-25T08:35:24.226Z,6.43
2023-03-25T08:37:54.095Z,4.93
2023-03-25T08:40:22.620Z,5.33
2023-03-25T08:42:51.019Z,6.30
2023-03-25T08:45:19.498Z,5.90
2023-03-25T08:47:47.887Z,7.70
2023-03-25T08:50:17.035Z,6.07
2023-03-25T08:52:46.224Z,4.83
2023-03-25T08:55:16.509Z,4.90
2023-03-25T08:57:44.999Z,7.27
2023-03-25T09:00:14.552Z,5.27
2023-03-25T09:02:43.638Z,4.63
2023-03-25T09:05:12.392Z,7.27
2023-03-25T09:07:40.840Z,3.97
2023-03-25T09:10:10.423Z,4.17
2023-03-25T09:12:40.289Z,5.70
2023-03-25T09:15:10.033Z,7.77
2023-03-25T09:17:38.389Z,12.67
2023-03-25T09:20:08.593Z,12.13
2023-03-25T09:22:39.604Z,8.07
2023-03-25T09:25:09.014Z,6.23
2023-03-25T09:27:37.722Z,8.20
2023-03-25T09:30:08.857Z,8.10
2023-03-25T09:32:37.512Z,6.87
2023-03-25T09:35:06.377Z,7.70
2023-03-25T09:37:34.682Z,5.27
2023-03-25T09:40:05.501Z,4.73
2023-03-25T09:42:47.489Z,5.40
2023-03-25T09:45:23.219Z,8.53
2023-03-25T09:47:56.600Z,15.07
2023-03-25T09:50:25.298Z,7.47
2023-03-25T09:52:56.136Z,6.00
2023-03-25T09:55:26.612Z,10.10
2023-03-25T09:57:59.126Z,8.23
2023-03-25T10:00:29.059Z,7.93
2023-03-25T10:03:03.434Z,5.87
2023-03-25T10:05:56.597Z,4.67
2023-03-25T10:08:29.008Z,7.17
2023-03-25T10:11:00.642Z,4.70
2023-03-25T10:13:32.097Z,8.57
2023-03-25T10:16:05.249Z,5.77
2023-03-25T10:18:51.329Z,7.90
2023-03-25T10:21:20.880Z,8.47
2023-03-25T10:23:51.764Z,5.87
2023-03-25T10:26:22.545Z,6.17
2023-03-25T10:28:52.194Z,4.73
2023-03-25T10:31:23.759Z,4.87
2023-03-25T10:33:54.386Z,6.73
2023-03-25T10:36:25.027Z,5.17
2023-03-25T10:38:55.609Z,6.33
2023-03-25T10:41:26.582Z,9.70
2023-03-25T10:43:55.026Z,6.70
2023-03-25T10:46:29.674Z,5.60
2023-03-25T10:48:58.178Z,6.53
2023-03-25T10:51:29.034Z,6.50
2023-03-25T10:53:57.357Z,7.47
2023-03-25T10:56:26.851Z,8.97
2023-03-25T10:58:56.195Z,13.23
2023-03-25T11:01:36.614Z,6.93
2023-03-25T11:04:05.766Z,4.43
2023-03-25T11:06:35.937Z,5.37
2023-03-25T11:09:16.007Z,4.77
2023-03-25T11:11:44.507Z,4.87
2023-03-25T11:14:12.980Z,2.67
2023-03-25T11:16:47.660Z,9.90
2023-03-25T11:19:24.336Z,2.83
2023-03-25T11:21:55.610Z,5.00
2023-03-25T11:24:23.883Z,4.57
2023-03-25T11:26:52.774Z,2.83
2023-03-25T11:29:22.274Z,3.40
2023-03-25T11:32:00.243Z,8.37
2023-03-25T11:34:28.800Z,5.17
2023-03-25T11:37:00.944Z,4.50
2023-03-25T11:39:32.305Z,38.33
2023-03-25T11:42:00.743Z,4.00
2023-03-25T11:44:30.269Z,6.07
2023-03-25T11:47:01.610Z,4.60
2023-03-25T11:49:30.009Z,4.40
2023-03-25T11:51:59.186Z,5.53
2023-03-25T11:54:27.727Z,2.70
2023-03-25T11:56:56.133Z,3.60
2023-03-25T11:59:26.024Z,3.47
2023-03-25T12:02:04.000Z,3.33
2023-03-25T12:04:32.535Z,5.20
2023-03-25T12:07:02.106Z,5.47
2023-03-25T12:09:31.562Z,3.07
2023-03-25T12:12:21.697Z,2.00
2023-03-25T12:14:54.482Z,6.32
2023-03-25T12:17:31.084Z,2.60
2023-03-25T12:20:08.225Z,7.05
2023-03-25T12:22:44.860Z,3.45
2023-03-25T12:25:21.277Z,7.27
2023-03-25T12:27:56.826Z,2.60
2023-03-25T12:30:34.785Z,3.17
2023-03-25T12:33:08.266Z,5.20
2023-03-25T12:35:40.683Z,2.50
2023-03-25T12:38:20.098Z,2.33
2023-03-25T12:41:08.683Z,3.43
2023-03-25T12:43:41.077Z,4.20
2023-03-25T12:46:15.018Z,3.50
2023-03-25T12:49:09.196Z,4.50
2023-03-25T12:51:43.051Z,2.87
2023-03-25T12:54:20.016Z,4.47
2023-03-25T12:56:51.920Z,5.70
2023-03-25T12:59:53.851Z,2.63
2023-03-25T13:02:30.122Z,2.77
2023-03-25T13:05:07.027Z,2.60
2023-03-25T13:07:37.977Z,2.20
2023-03-25T13:10:09.128Z,3.07
2023-03-25T13:12:41.060Z,2.83
2023-03-25T13:15:24.503Z,2.30
2023-03-25T13:17:56.118Z,2.97
2023-03-25T13:20:25.950Z,4.67
2023-03-25T13:22:58.005Z,4.60
2023-03-25T13:25:27.833Z,4.93
2023-03-25T13:27:56.719Z,6.47
2023-03-25T13:30:32.345Z,8.47
2023-03-25T13:33:02.855Z,2.80
2023-03-25T13:35:38.637Z,3.87
2023-03-25T13:38:11.278Z,2.77
2023-03-25T13:40:42.354Z,3.77
2023-03-25T13:43:17.177Z,3.37
2023-03-25T13:45:47.301Z,3.37
2023-03-25T13:48:17.613Z,2.70
2023-03-25T13:50:47.879Z,3.43
2023-03-25T13:53:19.170Z,2.80
2023-03-25T13:55:49.545Z,3.17
2023-03-25T13:58:47.908Z,1.93
2023-03-25T14:01:49.373Z,2.90
2023-03-25T14:04:30.428Z,5.07
2023-03-25T14:07:31.422Z,2.37
2023-03-25T14:10:04.836Z,4.00
2023-03-25T14:12:33.747Z,5.70
2023-03-25T14:15:04.345Z,3.50
2023-03-25T14:17:33.107Z,6.83
2023-03-25T14:20:01.486Z,3.00
2023-03-25T14:22:33.932Z,5.70
2023-03-25T14:25:02.346Z,3.87
2023-03-25T14:27:32.620Z,2.70
2023-03-25T14:30:01.573Z,2.73
2023-03-25T14:32:35.443Z,2.57
2023-03-25T14:35:47.211Z,2.93
2023-03-25T14:38:53.384Z,3.50
2023-03-25T14:42:00.150Z,2.73
2023-03-25T14:44:32.937Z,3.17
2023-03-25T14:47:03.071Z,3.33
2023-03-25T14:49:54.413Z,5.37
2023-03-25T14:52:27.170Z,3.50
2023-03-25T14:54:56.947Z,3.50
2023-03-25T14:57:26.202Z,3.97
2023-03-25T14:59:56.124Z,3.33
2023-03-25T15:02:27.256Z,5.20
2023-03-25T15:04:56.999Z,2.77
2023-03-25T15:07:41.076Z,2.23
2023-03-25T15:10:20.199Z,2.83
2023-03-25T15:12:51.307Z,3.80
2023-03-25T15:15:28.344Z,4.10
2023-03-25T15:17:58.385Z,3.77
2023-03-25T15:20:31.726Z,4.60
2023-03-25T15:23:22.359Z,4.43
2023-03-25T15:25:52.765Z,4.57
2023-03-25T15:28:23.100Z,3.80
2023-03-25T15:31:02.080Z,4.40
2023-03-25T15:33:38.527Z,2.83
2023-03-25T15:36:15.442Z,4.27
2023-03-25T15:38:51.269Z,4.83
2023-03-25T15:42:01.736Z,4.70
2023-03-25T15:45:06.268Z,3.50
2023-03-25T15:47:59.768Z,3.83
2023-03-25T15:50:35.231Z,4.07
2023-03-25T15:53:39.585Z,3.80
2023-03-25T15:56:11.572Z,3.03
2023-03-25T15:58:42.843Z,4.00
2023-03-25T16:01:17.113Z,3.53
2023-03-25T16:03:45.782Z,4.33
2023-03-25T16:06:16.313Z,5.00
2023-03-25T16:08:46.104Z,3.97
2023-03-25T16:11:18.402Z,4.63
2023-03-25T16:13:48.454Z,5.63
2023-03-25T16:16:17.375Z,5.67
2023-03-25T16:18:46.318Z,6.27
2023-03-25T16:21:14.588Z,4.80
2023-03-25T16:23:42.941Z,5.80
2023-03-25T16:26:16.347Z,4.87
2023-03-25T16:28:44.883Z,7.20
2023-03-25T16:31:28.269Z,4.93
2023-03-25T16:34:00.321Z,3.10
2023-03-25T16:36:28.673Z,4.83
2023-03-25T16:38:57.817Z,4.00
2023-03-25T16:41:26.187Z,5.03
2023-03-25T16:43:55.101Z,3.30
2023-03-25T16:46:24.987Z,5.03
2023-03-25T16:48:53.967Z,3.87
2023-03-25T16:51:23.273Z,4.10
2023-03-25T16:53:53.764Z,4.30
2023-03-25T16:56:23.923Z,5.57
2023-03-25T16:58:58.136Z,3.93
2023-03-25T17:01:29.413Z,5.03
2023-03-25T17:04:09.366Z,4.77
2023-03-25T17:06:40.053Z,3.93
2023-03-25T17:09:09.967Z,7.57
2023-03-25T17:11:38.261Z,6.70
2023-03-25T17:14:08.502Z,5.63
2023-03-25T17:16:38.407Z,7.60
2023-03-25T17:19:06.783Z,4.47
2023-03-25T17:21:35.873Z,4.30
2023-03-25T17:24:07.366Z,5.13
2023-03-25T17:26:36.487Z,4.13
2023-03-25T17:29:07.397Z,5.10
2023-03-25T17:31:37.998Z,6.23
2023-03-25T17:34:07.591Z,13.90
2023-03-25T17:36:36.662Z,15.50
2023-03-25T17:39:06.064Z,11.17
2023-03-25T17:41:37.937Z,12.13
2023-03-25T17:44:06.545Z,12.97
2023-03-25T17:46:35.308Z,14.77
2023-03-25T17:49:07.559Z,11.80
2023-03-25T17:51:35.849Z,10.23
2023-03-25T17:54:04.173Z,9.73
2023-03-25T17:56:32.500Z,8.43
2023-03-25T17:59:01.849Z,8.33
2023-03-25T18:01:30.921Z,7.43
2023-03-25T18:03:59.342Z,7.73
2023-03-25T18:06:29.193Z,7.77
2023-03-25T18:08:57.791Z,7.37
2023-03-25T18:11:26.156Z,11.17
2023-03-25T18:13:54.774Z,8.30
2023-03-25T18:16:23.278Z,10.70
2023-03-25T18:18:51.918Z,7.27
2023-03-25T18:21:22.560Z,10.03
2023-03-25T18:23:52.482Z,11.90
2023-03-25T18:26:20.936Z,12.57
2023-03-25T18:28:49.448Z,12.07
2023-03-25T18:31:18.195Z,9.03
2023-03-25T18:33:46.740Z,11.10
2023-03-25T18:36:15.194Z,8.93
2023-03-25T18:38:43.904Z,8.47
2023-03-25T18:41:14.523Z,10.33
2023-03-25T18:43:42.850Z,9.93
2023-03-25T18:46:12.613Z,7.93
2023-03-25T18:48:41.014Z,9.33
2023-03-25T18:51:12.010Z,9.00
2023-03-25T18:53:40.550Z,7.33
2023-03-25T18:56:09.834Z,6.53
2023-03-25T18:58:39.603Z,9.63
2023-03-25T19:01:10.148Z,9.43
2023-03-25T19:03:41.385Z,6.87
2023-03-25T19:06:11.505Z,8.07
2023-03-25T19:08:40.170Z,10.60
2023-03-25T19:11:20.006Z,13.13
2023-03-25T19:13:51.296Z,13.80
2023-03-25T19:16:19.869Z,9.53
2023-03-25T19:18:48.369Z,12.03
2023-03-25T19:21:18.094Z,10.00
2023-03-25T19:23:47.031Z,11.13
2023-03-25T19:26:15.640Z,11.07
2023-03-25T19:28:44.514Z,12.47
2023-03-25T19:31:16.737Z,10.73
2023-03-25T19:33:45.266Z,11.10
2023-03-25T19:36:15.372Z,11.57
2023-03-25T19:38:44.181Z,13.67
2023-03-25T19:41:13.890Z,13.90
2023-03-25T19:43:43.142Z,11.00
2023-03-25T19:46:11.681Z,14.43
2023-03-25T19:48:41.733Z,18.70
2023-03-25T19:51:10.681Z,15.23
2023-03-25T19:53:40.314Z,15.93
2023-03-25T19:56:14.007Z,13.43
2023-03-25T19:58:42.694Z,12.87
2023-03-25T20:01:12.340Z,13.00
2023-03-25T20:03:42.307Z,13.03
2023-03-25T20:06:10.911Z,14.97
2023-03-25T20:08:39.874Z,16.27
2023-03-25T20:11:12.357Z,17.37
2023-03-25T20:13:40.887Z,12.33
2023-03-25T20:16:10.660Z,15.40
2023-03-25T20:18:41.574Z,11.90
2023-03-25T20:21:12.060Z,12.93
2023-03-25T20:23:41.329Z,18.73
2023-03-25T20:26:09.792Z,18.67
2023-03-25T20:28:38.318Z,15.73
2023-03-25T20:31:18.604Z,19.67
2023-03-25T20:33:47.485Z,16.07
2023-03-25T20:36:17.359Z,14.67
2023-03-25T20:38:56.787Z,15.73
2023-03-25T20:41:26.514Z,14.63
2023-03-25T20:43:55.643Z,18.87
2023-03-25T20:46:28.558Z,17.47
2023-03-25T20:48:58.224Z,15.60
2023-03-25T20:51:28.132Z,15.77
2023-03-25T20:53:58.127Z,13.13
2023-03-25T20:56:27.673Z,15.20
2023-03-25T20:58:56.507Z,20.40
2023-03-25T21:01:25.214Z,22.57
2023-03-25T21:03:53.863Z,20.07
2023-03-25T21:06:25.425Z,20.47
2023-03-25T21:09:00.931Z,19.90
2023-03-25T21:11:31.451Z,19.47
2023-03-25T21:14:00.097Z,17.53
2023-03-25T21:16:28.687Z,16.87
2023-03-25T21:19:01.872Z,15.60
2023-03-25T21:21:31.061Z,15.43
2023-03-25T21:24:01.561Z,12.53
2023-03-25T21:26:32.385Z,14.33
2023-03-25T21:29:01.703Z,13.63
2023-03-25T21:31:31.242Z,13.07
2023-03-25T21:34:00.354Z,11.30
2023-03-25T21:36:30.344Z,14.40
2023-03-25T21:39:01.327Z,10.37
2023-03-25T21:41:31.176Z,7.20
2023-03-25T21:44:00.254Z,7.00
2023-03-25T21:46:28.681Z,11.30
2023-03-25T21:48:58.798Z,8.37
2023-03-25T21:51:31.015Z,6.07
2023-03-25T21:54:03.284Z,6.93
2023-03-25T21:56:33.639Z,7.37
2023-03-25T21:59:04.812Z,6.23
2023-03-25T22:01:33.443Z,6.27
2023-03-25T22:04:04.156Z,4.73
2023-03-25T22:06:36.655Z,4.77
2023-03-25T22:09:09.013Z,5.63
2023-03-25T22:11:40.253Z,5.13
2023-03-25T22:14:09.939Z,4.70
2023-03-25T22:16:40.105Z,4.33
2023-03-25T22:19:09.472Z,5.03
2023-03-25T22:21:39.463Z,4.97
2023-03-25T22:24:09.968Z,6.00
2023-03-25T22:26:39.978Z,6.07
2023-03-25T22:29:09.675Z,6.13
2023-03-25T22:31:40.043Z,5.93
2023-03-25T22:34:13.257Z,6.70
2023-03-25T22:36:46.913Z,6.90
2023-03-25T22:39:18.248Z,10.10
2023-03-25T22:41:46.654Z,8.83
2023-03-25T22:44:17.227Z,8.60
2023-03-25T22:46:46.169Z,7.47
2023-03-25T22:49:14.734Z,7.43
2023-03-25T22:51:45.049Z,7.90
2023-03-25T22:54:13.878Z,6.83
2023-03-25T22:56:44.712Z,7.13
2023-03-25T22:59:14.147Z,8.40
2023-03-25T23:01:43.571Z,7.37
2023-03-25T23:04:12.150Z,5.83
2023-03-25T23:06:42.004Z,7.83
2023-03-25T23:09:11.651Z,6.33
2023-03-25T23:11:40.485Z,7.30
2023-03-25T23:14:13.289Z,5.03
2023-03-25T23:16:42.502Z,6.67
2023-03-25T23:19:11.381Z,7.20
2023-03-25T23:21:40.889Z,4.93
2023-03-25T23:24:10.520Z,6.83
2023-03-25T23:26:40.378Z,5.83
2023-03-25T23:29:11.249Z,5.37
2023-03-25T23:31:41.421Z,5.87
2023-03-25T23:34:11.896Z,3.43
2023-03-25T23:36:40.821Z,7.20
2023-03-25T23:39:11.310Z,4.27
2023-03-25T23:41:40.322Z,4.77
2023-03-25T23:44:10.144Z,5.57
2023-03-25T23:46:38.869Z,5.30
2023-03-25T23:49:07.939Z,4.23
2023-03-25T23:51:37.662Z,4.03
2023-03-25T23:54:06.794Z,4.80
2023-03-25T23:56:35.512Z,3.97
2023-03-25T23:59:05.543Z,4.57
